Terminal Aerodrome Forecast
Issued by NWS

Home | Current Version | Previous Version | Text Only | Print | Product List | Glossary Off
Versions: 1 2 3 4 5 6 7 8 9 10 11 12 13 14 15 16

000
FTUS42 KMHX 100500
TAFPGV
TAF
KPGV 100533Z 1006/1106 20004KT P6SM VCSH FEW010 BKN080
     FM101200 22005KT P6SM VCSH BKN035
     FM101700 24005KT P6SM VCTS BKN035CB
      AMD LTD TO CLD VIS AND WIND=

USA.gov is the U.S. government's official web portal to all federal, state and local government web resources and services.